sensor_id;sensor_type;location;lat;lon;timestamp;P1;durP1;ratioP1;P2;durP2;ratioP2
58685;SDS011;44465;53.206;-6.106;2022-07-17T00:02:03;8.57;;;4.85;;
58685;SDS011;44465;53.206;-6.106;2022-07-17T00:04:28;9.35;;;5.50;;
58685;SDS011;44465;53.206;-6.106;2022-07-17T00:06:54;9.25;;;4.60;;
58685;SDS011;44465;53.206;-6.106;2022-07-17T00:09:19;8.90;;;4.82;;
58685;SDS011;44465;53.206;-6.106;2022-07-17T00:11:44;8.13;;;5.28;;
58685;SDS011;44465;53.206;-6.106;2022-07-17T00:14:10;11.93;;;5.05;;
58685;SDS011;44465;53.206;-6.106;2022-07-17T00:16:35;7.60;;;4.28;;
58685;SDS011;44465;53.206;-6.106;2022-07-17T00:19:01;7.65;;;4.47;;
58685;SDS011;44465;53.206;-6.106;2022-07-17T00:21:27;9.63;;;4.63;;
58685;SDS011;44465;53.206;-6.106;2022-07-17T00:23:52;9.48;;;4.68;;
58685;SDS011;44465;53.206;-6.106;2022-07-17T00:26:17;8.73;;;4.57;;
58685;SDS011;44465;53.206;-6.106;2022-07-17T00:28:43;9.43;;;4.85;;
58685;SDS011;44465;53.206;-6.106;2022-07-17T00:31:08;9.13;;;4.75;;
58685;SDS011;44465;53.206;-6.106;2022-07-17T00:33:34;9.60;;;4.43;;
58685;SDS011;44465;53.206;-6.106;2022-07-17T00:35:59;9.77;;;4.55;;
58685;SDS011;44465;53.206;-6.106;2022-07-17T00:38:25;9.90;;;4.53;;
58685;SDS011;44465;53.206;-6.106;2022-07-17T00:40:55;8.77;;;4.63;;
58685;SDS011;44465;53.206;-6.106;2022-07-17T00:43:21;8.32;;;4.65;;
58685;SDS011;44465;53.206;-6.106;2022-07-17T00:45:55;8.10;;;4.20;;
58685;SDS011;44465;53.206;-6.106;2022-07-17T00:48:23;11.27;;;4.60;;
58685;SDS011;44465;53.206;-6.106;2022-07-17T00:50:48;9.68;;;4.35;;
58685;SDS011;44465;53.206;-6.106;2022-07-17T00:53:14;8.73;;;4.32;;
58685;SDS011;44465;53.206;-6.106;2022-07-17T00:55:40;11.90;;;5.13;;
58685;SDS011;44465;53.206;-6.106;2022-07-17T00:58:06;6.90;;;3.90;;
58685;SDS011;44465;53.206;-6.106;2022-07-17T01:02:59;7.07;;;4.00;;
58685;SDS011;44465;53.206;-6.106;2022-07-17T01:05:24;6.70;;;4.00;;
58685;SDS011;44465;53.206;-6.106;2022-07-17T01:07:50;5.65;;;3.80;;
58685;SDS011;44465;53.206;-6.106;2022-07-17T01:10:17;8.65;;;3.90;;
58685;SDS011;44465;53.206;-6.106;2022-07-17T01:12:44;7.03;;;3.83;;
58685;SDS011;44465;53.206;-6.106;2022-07-17T01:15:11;7.60;;;4.10;;
58685;SDS011;44465;53.206;-6.106;2022-07-17T01:17:38;7.07;;;3.80;;
58685;SDS011;44465;53.206;-6.106;2022-07-17T01:20:04;7.43;;;4.40;;
58685;SDS011;44465;53.206;-6.106;2022-07-17T01:22:31;6.20;;;4.45;;
58685;SDS011;44465;53.206;-6.106;2022-07-17T01:24:57;8.00;;;3.83;;
58685;SDS011;44465;53.206;-6.106;2022-07-17T01:27:22;6.32;;;3.90;;
58685;SDS011;44465;53.206;-6.106;2022-07-17T01:29:48;6.72;;;3.42;;
58685;SDS011;44465;53.206;-6.106;2022-07-17T01:32:14;8.02;;;4.05;;
58685;SDS011;44465;53.206;-6.106;2022-07-17T01:34:39;5.20;;;3.80;;
58685;SDS011;44465;53.206;-6.106;2022-07-17T01:37:05;5.88;;;4.18;;
58685;SDS011;44465;53.206;-6.106;2022-07-17T01:39:30;5.05;;;3.75;;
58685;SDS011;44465;53.206;-6.106;2022-07-17T01:42:14;7.05;;;4.20;;
58685;SDS011;44465;53.206;-6.106;2022-07-17T01:44:40;8.10;;;3.95;;
58685;SDS011;44465;53.206;-6.106;2022-07-17T01:47:05;7.88;;;3.83;;
58685;SDS011;44465;53.206;-6.106;2022-07-17T01:49:30;5.45;;;3.47;;
58685;SDS011;44465;53.206;-6.106;2022-07-17T01:51:56;5.53;;;3.45;;
58685;SDS011;44465;53.206;-6.106;2022-07-17T01:54:25;8.48;;;4.07;;
58685;SDS011;44465;53.206;-6.106;2022-07-17T01:56:51;6.75;;;3.45;;
58685;SDS011;44465;53.206;-6.106;2022-07-17T01:59:17;7.05;;;3.80;;
58685;SDS011;44465;53.206;-6.106;2022-07-17T02:01:43;7.35;;;3.80;;
58685;SDS011;44465;53.206;-6.106;2022-07-17T02:04:08;4.68;;;3.05;;
58685;SDS011;44465;53.206;-6.106;2022-07-17T02:06:33;5.38;;;3.55;;
58685;SDS011;44465;53.206;-6.106;2022-07-17T02:08:59;5.20;;;3.40;;
58685;SDS011;44465;53.206;-6.106;2022-07-17T02:11:24;6.10;;;3.58;;
58685;SDS011;44465;53.206;-6.106;2022-07-17T02:13:50;6.18;;;3.88;;
58685;SDS011;44465;53.206;-6.106;2022-07-17T02:16:15;5.90;;;3.58;;
58685;SDS011;44465;53.206;-6.106;2022-07-17T02:18:41;5.22;;;3.03;;
58685;SDS011;44465;53.206;-6.106;2022-07-17T02:21:06;5.15;;;3.10;;
58685;SDS011;44465;53.206;-6.106;2022-07-17T02:23:32;5.38;;;3.55;;
58685;SDS011;44465;53.206;-6.106;2022-07-17T02:25:57;4.13;;;3.30;;
58685;SDS011;44465;53.206;-6.106;2022-07-17T02:28:23;5.32;;;3.28;;
58685;SDS011;44465;53.206;-6.106;2022-07-17T02:30:49;4.90;;;3.40;;
58685;SDS011;44465;53.206;-6.106;2022-07-17T02:33:15;6.40;;;3.78;;
58685;SDS011;44465;53.206;-6.106;2022-07-17T02:35:40;5.13;;;3.75;;
58685;SDS011;44465;53.206;-6.106;2022-07-17T02:38:06;5.03;;;3.25;;
58685;SDS011;44465;53.206;-6.106;2022-07-17T02:40:31;4.93;;;3.17;;
58685;SDS011;44465;53.206;-6.106;2022-07-17T02:42:57;5.40;;;3.10;;
58685;SDS011;44465;53.206;-6.106;2022-07-17T02:45:23;4.03;;;2.72;;
58685;SDS011;44465;53.206;-6.106;2022-07-17T02:47:51;7.07;;;3.08;;
58685;SDS011;44465;53.206;-6.106;2022-07-17T02:50:19;4.40;;;2.92;;
58685;SDS011;44465;53.206;-6.106;2022-07-17T02:52:45;5.70;;;3.20;;
58685;SDS011;44465;53.206;-6.106;2022-07-17T02:55:11;4.40;;;2.95;;
58685;SDS011;44465;53.206;-6.106;2022-07-17T02:57:37;3.55;;;2.90;;
58685;SDS011;44465;53.206;-6.106;2022-07-17T03:00:04;5.10;;;3.13;;
58685;SDS011;44465;53.206;-6.106;2022-07-17T03:02:31;5.47;;;3.40;;
58685;SDS011;44465;53.206;-6.106;2022-07-17T03:04:56;5.13;;;2.92;;
58685;SDS011;44465;53.206;-6.106;2022-07-17T03:07:22;4.05;;;3.28;;
58685;SDS011;44465;53.206;-6.106;2022-07-17T03:09:47;5.80;;;3.00;;
58685;SDS011;44465;53.206;-6.106;2022-07-17T03:12:13;4.43;;;2.85;;
58685;SDS011;44465;53.206;-6.106;2022-07-17T03:14:38;4.97;;;2.75;;
58685;SDS011;44465;53.206;-6.106;2022-07-17T03:17:04;3.97;;;3.10;;
58685;SDS011;44465;53.206;-6.106;2022-07-17T03:19:29;3.55;;;2.78;;
58685;SDS011;44465;53.206;-6.106;2022-07-17T03:21:55;4.05;;;2.90;;
58685;SDS011;44465;53.206;-6.106;2022-07-17T03:24:20;5.20;;;2.78;;
58685;SDS011;44465;53.206;-6.106;2022-07-17T03:26:46;3.70;;;3.00;;
58685;SDS011;44465;53.206;-6.106;2022-07-17T03:29:11;3.92;;;2.83;;
58685;SDS011;44465;53.206;-6.106;2022-07-17T03:31:37;4.18;;;2.90;;
58685;SDS011;44465;53.206;-6.106;2022-07-17T03:34:03;3.65;;;3.03;;
58685;SDS011;44465;53.206;-6.106;2022-07-17T03:36:28;3.97;;;2.40;;
58685;SDS011;44465;53.206;-6.106;2022-07-17T03:38:54;4.07;;;2.70;;
58685;SDS011;44465;53.206;-6.106;2022-07-17T03:41:19;3.55;;;2.70;;
58685;SDS011;44465;53.206;-6.106;2022-07-17T03:43:45;3.45;;;2.70;;
58685;SDS011;44465;53.206;-6.106;2022-07-17T03:46:10;3.30;;;2.78;;
58685;SDS011;44465;53.206;-6.106;2022-07-17T03:48:36;2.92;;;2.58;;
58685;SDS011;44465;53.206;-6.106;2022-07-17T03:51:02;3.33;;;2.50;;
58685;SDS011;44465;53.206;-6.106;2022-07-17T03:53:28;2.85;;;2.50;;
58685;SDS011;44465;53.206;-6.106;2022-07-17T03:55:53;5.63;;;2.80;;
58685;SDS011;44465;53.206;-6.106;2022-07-17T03:58:18;3.17;;;2.67;;
58685;SDS011;44465;53.206;-6.106;2022-07-17T04:00:44;4.45;;;2.72;;
58685;SDS011;44465;53.206;-6.106;2022-07-17T04:03:09;4.45;;;2.58;;
58685;SDS011;44465;53.206;-6.106;2022-07-17T04:05:35;3.05;;;2.55;;
58685;SDS011;44465;53.206;-6.106;2022-07-17T04:08:00;3.78;;;2.88;;
58685;SDS011;44465;53.206;-6.106;2022-07-17T04:10:26;3.33;;;2.50;;
58685;SDS011;44465;53.206;-6.106;2022-07-17T04:12:52;2.55;;;2.35;;
58685;SDS011;44465;53.206;-6.106;2022-07-17T04:15:17;4.03;;;3.03;;
58685;SDS011;44465;53.206;-6.106;2022-07-17T04:18:03;3.63;;;2.63;;
58685;SDS011;44465;53.206;-6.106;2022-07-17T04:20:29;4.85;;;3.10;;
58685;SDS011;44465;53.206;-6.106;2022-07-17T04:22:54;5.40;;;2.88;;
58685;SDS011;44465;53.206;-6.106;2022-07-17T04:25:20;3.90;;;2.72;;
58685;SDS011;44465;53.206;-6.106;2022-07-17T04:27:45;3.72;;;2.58;;
58685;SDS011;44465;53.206;-6.106;2022-07-17T04:30:10;3.17;;;2.85;;
58685;SDS011;44465;53.206;-6.106;2022-07-17T04:32:36;3.58;;;2.80;;
58685;SDS011;44465;53.206;-6.106;2022-07-17T04:35:02;3.75;;;2.70;;
58685;SDS011;44465;53.206;-6.106;2022-07-17T04:37:28;3.13;;;2.75;;
58685;SDS011;44465;53.206;-6.106;2022-07-17T04:39:53;4.35;;;2.67;;
58685;SDS011;44465;53.206;-6.106;2022-07-17T04:42:18;3.72;;;2.30;;
58685;SDS011;44465;53.206;-6.106;2022-07-17T04:44:44;5.20;;;2.95;;
58685;SDS011;44465;53.206;-6.106;2022-07-17T04:47:09;4.22;;;3.00;;
58685;SDS011;44465;53.206;-6.106;2022-07-17T04:49:35;3.40;;;2.58;;
58685;SDS011;44465;53.206;-6.106;2022-07-17T04:52:00;2.55;;;2.35;;
58685;SDS011;44465;53.206;-6.106;2022-07-17T04:54:26;2.95;;;2.47;;
58685;SDS011;44465;53.206;-6.106;2022-07-17T04:56:51;3.47;;;2.67;;
58685;SDS011;44465;53.206;-6.106;2022-07-17T04:59:16;3.70;;;2.50;;
58685;SDS011;44465;53.206;-6.106;2022-07-17T05:01:42;3.10;;;2.40;;
58685;SDS011;44465;53.206;-6.106;2022-07-17T05:04:07;3.45;;;2.63;;
58685;SDS011;44465;53.206;-6.106;2022-07-17T05:06:33;3.42;;;2.83;;
58685;SDS011;44465;53.206;-6.106;2022-07-17T05:08:58;2.83;;;2.42;;
58685;SDS011;44465;53.206;-6.106;2022-07-17T05:11:24;2.80;;;2.30;;
58685;SDS011;44465;53.206;-6.106;2022-07-17T05:13:49;2.35;;;2.13;;
58685;SDS011;44465;53.206;-6.106;2022-07-17T05:16:15;3.92;;;2.42;;
58685;SDS011;44465;53.206;-6.106;2022-07-17T05:18:40;2.70;;;2.40;;
58685;SDS011;44465;53.206;-6.106;2022-07-17T05:21:06;3.40;;;2.72;;
58685;SDS011;44465;53.206;-6.106;2022-07-17T05:23:31;3.55;;;2.53;;
58685;SDS011;44465;53.206;-6.106;2022-07-17T05:25:57;3.95;;;2.40;;
58685;SDS011;44465;53.206;-6.106;2022-07-17T05:28:23;2.42;;;2.22;;
58685;SDS011;44465;53.206;-6.106;2022-07-17T05:30:48;3.13;;;2.63;;
58685;SDS011;44465;53.206;-6.106;2022-07-17T05:33:13;3.42;;;2.45;;
58685;SDS011;44465;53.206;-6.106;2022-07-17T05:35:39;3.60;;;2.50;;
58685;SDS011;44465;53.206;-6.106;2022-07-17T05:38:04;5.43;;;3.13;;
58685;SDS011;44465;53.206;-6.106;2022-07-17T05:40:31;2.58;;;2.38;;
58685;SDS011;44465;53.206;-6.106;2022-07-17T05:42:57;3.75;;;2.47;;
58685;SDS011;44465;53.206;-6.106;2022-07-17T05:45:23;3.17;;;2.40;;
58685;SDS011;44465;53.206;-6.106;2022-07-17T05:47:49;3.17;;;2.58;;
58685;SDS011;44465;53.206;-6.106;2022-07-17T05:50:14;3.30;;;2.33;;
58685;SDS011;44465;53.206;-6.106;2022-07-17T05:52:40;3.35;;;2.50;;
58685;SDS011;44465;53.206;-6.106;2022-07-17T05:55:05;3.13;;;2.40;;
58685;SDS011;44465;53.206;-6.106;2022-07-17T05:57:31;3.85;;;2.60;;
58685;SDS011;44465;53.206;-6.106;2022-07-17T05:59:57;3.17;;;2.63;;
58685;SDS011;44465;53.206;-6.106;2022-07-17T06:02:23;4.03;;;2.55;;
58685;SDS011;44465;53.206;-6.106;2022-07-17T06:04:48;3.25;;;2.80;;
58685;SDS011;44465;53.206;-6.106;2022-07-17T06:07:14;3.63;;;2.35;;
58685;SDS011;44465;53.206;-6.106;2022-07-17T06:09:39;2.50;;;2.30;;
58685;SDS011;44465;53.206;-6.106;2022-07-17T06:12:05;2.75;;;2.20;;
58685;SDS011;44465;53.206;-6.106;2022-07-17T06:14:30;2.80;;;2.40;;
58685;SDS011;44465;53.206;-6.106;2022-07-17T06:16:56;2.42;;;2.22;;
58685;SDS011;44465;53.206;-6.106;2022-07-17T06:19:21;3.65;;;2.17;;
58685;SDS011;44465;53.206;-6.106;2022-07-17T06:21:47;3.72;;;2.50;;
58685;SDS011;44465;53.206;-6.106;2022-07-17T06:24:12;2.95;;;2.50;;
58685;SDS011;44465;53.206;-6.106;2022-07-17T06:26:37;3.58;;;2.20;;
58685;SDS011;44465;53.206;-6.106;2022-07-17T06:29:03;3.25;;;2.42;;
58685;SDS011;44465;53.206;-6.106;2022-07-17T06:31:28;3.67;;;2.70;;
58685;SDS011;44465;53.206;-6.106;2022-07-17T06:33:54;2.40;;;2.20;;
58685;SDS011;44465;53.206;-6.106;2022-07-17T06:36:20;3.42;;;2.60;;
58685;SDS011;44465;53.206;-6.106;2022-07-17T06:38:45;2.90;;;2.60;;
58685;SDS011;44465;53.206;-6.106;2022-07-17T06:41:11;3.42;;;2.47;;
58685;SDS011;44465;53.206;-6.106;2022-07-17T06:43:36;3.13;;;2.70;;
58685;SDS011;44465;53.206;-6.106;2022-07-17T06:46:02;3.00;;;2.70;;
58685;SDS011;44465;53.206;-6.106;2022-07-17T06:48:27;3.55;;;2.70;;
58685;SDS011;44465;53.206;-6.106;2022-07-17T06:50:53;3.42;;;2.60;;
58685;SDS011;44465;53.206;-6.106;2022-07-17T06:53:18;3.83;;;2.63;;
58685;SDS011;44465;53.206;-6.106;2022-07-17T06:55:43;3.50;;;2.40;;
58685;SDS011;44465;53.206;-6.106;2022-07-17T06:58:09;4.35;;;2.42;;
58685;SDS011;44465;53.206;-6.106;2022-07-17T07:00:34;3.42;;;2.92;;
58685;SDS011;44465;53.206;-6.106;2022-07-17T07:03:00;3.33;;;2.50;;
58685;SDS011;44465;53.206;-6.106;2022-07-17T07:05:25;3.58;;;2.70;;
58685;SDS011;44465;53.206;-6.106;2022-07-17T07:07:51;4.22;;;2.55;;
58685;SDS011;44465;53.206;-6.106;2022-07-17T07:10:17;2.65;;;2.40;;
58685;SDS011;44465;53.206;-6.106;2022-07-17T07:12:42;3.47;;;2.55;;
58685;SDS011;44465;53.206;-6.106;2022-07-17T07:15:08;4.22;;;2.53;;
58685;SDS011;44465;53.206;-6.106;2022-07-17T07:17:34;2.85;;;2.42;;
58685;SDS011;44465;53.206;-6.106;2022-07-17T07:20:03;3.92;;;2.67;;
58685;SDS011;44465;53.206;-6.106;2022-07-17T07:22:30;2.72;;;2.17;;
58685;SDS011;44465;53.206;-6.106;2022-07-17T07:24:56;4.47;;;2.47;;
58685;SDS011;44465;53.206;-6.106;2022-07-17T07:27:21;3.55;;;2.28;;
58685;SDS011;44465;53.206;-6.106;2022-07-17T07:29:47;3.17;;;2.60;;
58685;SDS011;44465;53.206;-6.106;2022-07-17T07:32:12;2.92;;;2.47;;
58685;SDS011;44465;53.206;-6.106;2022-07-17T07:34:39;3.65;;;2.60;;
58685;SDS011;44465;53.206;-6.106;2022-07-17T07:37:05;3.50;;;2.50;;
58685;SDS011;44465;53.206;-6.106;2022-07-17T07:39:30;3.90;;;2.65;;
58685;SDS011;44465;53.206;-6.106;2022-07-17T07:41:56;3.10;;;2.38;;
58685;SDS011;44465;53.206;-6.106;2022-07-17T07:44:21;3.42;;;2.63;;
58685;SDS011;44465;53.206;-6.106;2022-07-17T07:46:47;5.10;;;2.50;;
58685;SDS011;44465;53.206;-6.106;2022-07-17T07:49:12;4.43;;;2.83;;
58685;SDS011;44465;53.206;-6.106;2022-07-17T07:51:38;5.13;;;2.78;;
58685;SDS011;44465;53.206;-6.106;2022-07-17T07:54:03;2.88;;;2.47;;
58685;SDS011;44465;53.206;-6.106;2022-07-17T07:56:29;2.85;;;2.53;;
58685;SDS011;44465;53.206;-6.106;2022-07-17T07:58:54;8.95;;;2.95;;
58685;SDS011;44465;53.206;-6.106;2022-07-17T08:01:20;7.78;;;3.03;;
58685;SDS011;44465;53.206;-6.106;2022-07-17T08:03:45;8.57;;;3.03;;
58685;SDS011;44465;53.206;-6.106;2022-07-17T08:06:11;3.33;;;2.90;;
58685;SDS011;44465;53.206;-6.106;2022-07-17T08:08:36;5.10;;;2.78;;
58685;SDS011;44465;53.206;-6.106;2022-07-17T08:11:01;7.20;;;2.35;;
58685;SDS011;44465;53.206;-6.106;2022-07-17T08:13:27;10.68;;;3.85;;
58685;SDS011;44465;53.206;-6.106;2022-07-17T08:15:52;9.65;;;3.58;;
58685;SDS011;44465;53.206;-6.106;2022-07-17T08:18:18;12.57;;;4.55;;
58685;SDS011;44465;53.206;-6.106;2022-07-17T08:20:43;13.57;;;3.90;;
58685;SDS011;44465;53.206;-6.106;2022-07-17T08:23:09;16.75;;;4.72;;
58685;SDS011;44465;53.206;-6.106;2022-07-17T08:25:34;19.52;;;5.22;;
58685;SDS011;44465;53.206;-6.106;2022-07-17T08:28:00;15.70;;;4.60;;
58685;SDS011;44465;53.206;-6.106;2022-07-17T08:30:26;18.63;;;4.47;;
58685;SDS011;44465;53.206;-6.106;2022-07-17T08:32:52;15.43;;;5.00;;
58685;SDS011;44465;53.206;-6.106;2022-07-17T08:35:17;12.43;;;4.38;;
58685;SDS011;44465;53.206;-6.106;2022-07-17T08:37:44;14.52;;;4.65;;
58685;SDS011;44465;53.206;-6.106;2022-07-17T08:40:20;12.27;;;3.92;;
58685;SDS011;44465;53.206;-6.106;2022-07-17T08:42:51;19.13;;;5.25;;
58685;SDS011;44465;53.206;-6.106;2022-07-17T08:45:16;15.48;;;4.82;;
58685;SDS011;44465;53.206;-6.106;2022-07-17T08:47:42;13.15;;;4.38;;
58685;SDS011;44465;53.206;-6.106;2022-07-17T08:50:08;11.00;;;4.82;;
58685;SDS011;44465;53.206;-6.106;2022-07-17T08:52:36;15.23;;;4.60;;
58685;SDS011;44465;53.206;-6.106;2022-07-17T08:55:02;14.40;;;4.50;;
58685;SDS011;44465;53.206;-6.106;2022-07-17T08:57:28;15.05;;;4.95;;
58685;SDS011;44465;53.206;-6.106;2022-07-17T08:59:54;12.38;;;4.43;;
58685;SDS011;44465;53.206;-6.106;2022-07-17T09:02:19;13.20;;;4.60;;
58685;SDS011;44465;53.206;-6.106;2022-07-17T09:04:52;12.55;;;4.43;;
58685;SDS011;44465;53.206;-6.106;2022-07-17T09:07:21;12.93;;;4.65;;
58685;SDS011;44465;53.206;-6.106;2022-07-17T09:09:50;10.93;;;4.40;;
58685;SDS011;44465;53.206;-6.106;2022-07-17T09:12:16;12.35;;;4.35;;
58685;SDS011;44465;53.206;-6.106;2022-07-17T09:14:42;10.20;;;4.50;;
58685;SDS011;44465;53.206;-6.106;2022-07-17T09:17:08;10.68;;;4.40;;
58685;SDS011;44465;53.206;-6.106;2022-07-17T09:19:36;12.65;;;4.90;;
58685;SDS011;44465;53.206;-6.106;2022-07-17T09:22:05;16.35;;;5.20;;
58685;SDS011;44465;53.206;-6.106;2022-07-17T09:24:42;9.97;;;4.90;;
58685;SDS011;44465;53.206;-6.106;2022-07-17T09:27:07;13.60;;;5.00;;
58685;SDS011;44465;53.206;-6.106;2022-07-17T09:29:34;10.75;;;4.47;;
58685;SDS011;44465;53.206;-6.106;2022-07-17T09:31:59;7.82;;;4.32;;
58685;SDS011;44465;53.206;-6.106;2022-07-17T09:34:25;15.30;;;4.50;;
58685;SDS011;44465;53.206;-6.106;2022-07-17T09:36:58;13.85;;;4.88;;
58685;SDS011;44465;53.206;-6.106;2022-07-17T09:39:33;10.45;;;4.32;;
58685;SDS011;44465;53.206;-6.106;2022-07-17T09:42:00;11.10;;;3.85;;
58685;SDS011;44465;53.206;-6.106;2022-07-17T09:44:25;9.63;;;3.80;;
58685;SDS011;44465;53.206;-6.106;2022-07-17T09:46:51;6.65;;;3.78;;
58685;SDS011;44465;53.206;-6.106;2022-07-17T09:49:17;10.45;;;4.57;;
58685;SDS011;44465;53.206;-6.106;2022-07-17T09:51:43;18.55;;;4.88;;
58685;SDS011;44465;53.206;-6.106;2022-07-17T09:54:10;14.63;;;4.05;;
58685;SDS011;44465;53.206;-6.106;2022-07-17T09:56:36;13.05;;;3.95;;
58685;SDS011;44465;53.206;-6.106;2022-07-17T09:59:07;15.07;;;4.25;;
58685;SDS011;44465;53.206;-6.106;2022-07-17T10:01:34;17.17;;;5.38;;
58685;SDS011;44465;53.206;-6.106;2022-07-17T10:04:03;21.38;;;4.97;;
58685;SDS011;44465;53.206;-6.106;2022-07-17T10:06:30;18.77;;;5.07;;
58685;SDS011;44465;53.206;-6.106;2022-07-17T10:08:56;26.02;;;4.65;;
58685;SDS011;44465;53.206;-6.106;2022-07-17T10:11:23;24.88;;;4.88;;
58685;SDS011;44465;53.206;-6.106;2022-07-17T10:13:51;36.70;;;5.95;;
58685;SDS011;44465;53.206;-6.106;2022-07-17T10:16:29;16.60;;;4.85;;
58685;SDS011;44465;53.206;-6.106;2022-07-17T10:18:56;18.95;;;5.20;;
58685;SDS011;44465;53.206;-6.106;2022-07-17T10:21:23;19.70;;;5.75;;
58685;SDS011;44465;53.206;-6.106;2022-07-17T10:31:52;26.13;;;5.80;;
58685;SDS011;44465;53.206;-6.106;2022-07-17T10:34:18;27.63;;;5.32;;
58685;SDS011;44465;53.206;-6.106;2022-07-17T10:36:44;37.10;;;6.70;;
58685;SDS011;44465;53.206;-6.106;2022-07-17T10:39:10;20.67;;;5.03;;
58685;SDS011;44465;53.206;-6.106;2022-07-17T10:41:36;27.70;;;6.50;;
58685;SDS011;44465;53.206;-6.106;2022-07-17T10:44:02;23.15;;;6.78;;
58685;SDS011;44465;53.206;-6.106;2022-07-17T10:46:28;30.02;;;6.25;;
58685;SDS011;44465;53.206;-6.106;2022-07-17T10:48:53;31.17;;;6.80;;
58685;SDS011;44465;53.206;-6.106;2022-07-17T10:51:23;21.95;;;6.90;;
58685;SDS011;44465;53.206;-6.106;2022-07-17T10:53:49;19.25;;;6.00;;
58685;SDS011;44465;53.206;-6.106;2022-07-17T10:56:14;17.08;;;5.82;;
58685;SDS011;44465;53.206;-6.106;2022-07-17T10:58:42;12.65;;;5.75;;
58685;SDS011;44465;53.206;-6.106;2022-07-17T11:01:19;13.27;;;5.60;;
58685;SDS011;44465;53.206;-6.106;2022-07-17T11:03:51;14.20;;;4.80;;
58685;SDS011;44465;53.206;-6.106;2022-07-17T11:06:22;13.98;;;5.43;;
58685;SDS011;44465;53.206;-6.106;2022-07-17T11:08:56;15.70;;;5.53;;
58685;SDS011;44465;53.206;-6.106;2022-07-17T11:11:37;19.30;;;5.65;;
58685;SDS011;44465;53.206;-6.106;2022-07-17T11:14:15;14.02;;;5.45;;
58685;SDS011;44465;53.206;-6.106;2022-07-17T11:16:52;25.40;;;6.38;;
58685;SDS011;44465;53.206;-6.106;2022-07-17T11:19:26;14.93;;;5.88;;
58685;SDS011;44465;53.206;-6.106;2022-07-17T11:21:54;14.30;;;6.35;;
58685;SDS011;44465;53.206;-6.106;2022-07-17T11:24:22;11.13;;;5.20;;
58685;SDS011;44465;53.206;-6.106;2022-07-17T11:26:49;12.20;;;5.53;;
58685;SDS011;44465;53.206;-6.106;2022-07-17T11:29:15;10.23;;;5.10;;
58685;SDS011;44465;53.206;-6.106;2022-07-17T11:31:41;9.07;;;4.93;;
58685;SDS011;44465;53.206;-6.106;2022-07-17T11:34:08;12.30;;;5.10;;
58685;SDS011;44465;53.206;-6.106;2022-07-17T11:36:39;13.25;;;5.55;;
58685;SDS011;44465;53.206;-6.106;2022-07-17T11:39:08;13.95;;;4.82;;
58685;SDS011;44465;53.206;-6.106;2022-07-17T11:41:40;11.70;;;4.88;;
58685;SDS011;44465;53.206;-6.106;2022-07-17T11:44:12;11.18;;;5.07;;
58685;SDS011;44465;53.206;-6.106;2022-07-17T11:46:42;10.45;;;4.85;;
58685;SDS011;44465;53.206;-6.106;2022-07-17T11:49:10;10.07;;;5.05;;
58685;SDS011;44465;53.206;-6.106;2022-07-17T11:51:43;7.20;;;4.70;;
58685;SDS011;44465;53.206;-6.106;2022-07-17T11:54:10;8.63;;;5.07;;
58685;SDS011;44465;53.206;-6.106;2022-07-17T11:56:37;8.00;;;4.57;;
58685;SDS011;44465;53.206;-6.106;2022-07-17T11:59:03;7.70;;;4.60;;
58685;SDS011;44465;53.206;-6.106;2022-07-17T12:01:37;9.45;;;4.53;;
58685;SDS011;44465;53.206;-6.106;2022-07-17T12:04:13;11.02;;;4.50;;
58685;SDS011;44465;53.206;-6.106;2022-07-17T12:06:40;12.13;;;5.18;;
58685;SDS011;44465;53.206;-6.106;2022-07-17T12:09:05;7.47;;;4.30;;
58685;SDS011;44465;53.206;-6.106;2022-07-17T12:11:32;11.07;;;5.03;;
58685;SDS011;44465;53.206;-6.106;2022-07-17T12:14:04;9.55;;;4.50;;
58685;SDS011;44465;53.206;-6.106;2022-07-17T12:16:34;17.80;;;5.60;;
58685;SDS011;44465;53.206;-6.106;2022-07-17T12:19:15;17.63;;;5.47;;
58685;SDS011;44465;53.206;-6.106;2022-07-17T12:24:19;12.15;;;5.00;;
58685;SDS011;44465;53.206;-6.106;2022-07-17T12:26:46;10.65;;;5.07;;
58685;SDS011;44465;53.206;-6.106;2022-07-17T12:29:12;11.13;;;4.80;;
58685;SDS011;44465;53.206;-6.106;2022-07-17T12:31:37;9.68;;;4.38;;
58685;SDS011;44465;53.206;-6.106;2022-07-17T12:34:03;8.25;;;4.63;;
58685;SDS011;44465;53.206;-6.106;2022-07-17T12:36:28;9.90;;;4.60;;
58685;SDS011;44465;53.206;-6.106;2022-07-17T12:38:54;7.95;;;4.40;;
58685;SDS011;44465;53.206;-6.106;2022-07-17T12:41:20;8.90;;;4.78;;
58685;SDS011;44465;53.206;-6.106;2022-07-17T12:43:46;8.10;;;5.25;;
58685;SDS011;44465;53.206;-6.106;2022-07-17T12:46:11;7.90;;;4.95;;
58685;SDS011;44465;53.206;-6.106;2022-07-17T12:48:37;12.35;;;4.85;;
58685;SDS011;44465;53.206;-6.106;2022-07-17T12:51:05;13.23;;;4.95;;
58685;SDS011;44465;53.206;-6.106;2022-07-17T12:53:31;17.88;;;4.97;;
58685;SDS011;44465;53.206;-6.106;2022-07-17T12:55:56;12.70;;;4.70;;
58685;SDS011;44465;53.206;-6.106;2022-07-17T12:58:22;16.25;;;4.93;;
58685;SDS011;44465;53.206;-6.106;2022-07-17T13:00:47;15.77;;;5.13;;
58685;SDS011;44465;53.206;-6.106;2022-07-17T13:03:13;10.50;;;4.50;;
58685;SDS011;44465;53.206;-6.106;2022-07-17T13:05:38;9.98;;;4.38;;
58685;SDS011;44465;53.206;-6.106;2022-07-17T13:08:04;10.70;;;4.32;;
58685;SDS011;44465;53.206;-6.106;2022-07-17T13:10:30;8.60;;;4.28;;
58685;SDS011;44465;53.206;-6.106;2022-07-17T13:12:56;20.88;;;5.18;;
58685;SDS011;44465;53.206;-6.106;2022-07-17T13:15:21;25.13;;;5.80;;
58685;SDS011;44465;53.206;-6.106;2022-07-17T13:17:47;10.88;;;4.85;;
58685;SDS011;44465;53.206;-6.106;2022-07-17T13:20:12;19.70;;;4.82;;
58685;SDS011;44465;53.206;-6.106;2022-07-17T13:22:38;14.70;;;5.20;;
58685;SDS011;44465;53.206;-6.106;2022-07-17T13:25:04;15.23;;;4.43;;
58685;SDS011;44465;53.206;-6.106;2022-07-17T13:27:29;12.32;;;4.57;;
58685;SDS011;44465;53.206;-6.106;2022-07-17T13:29:55;12.60;;;4.95;;
58685;SDS011;44465;53.206;-6.106;2022-07-17T13:32:20;10.25;;;4.72;;
58685;SDS011;44465;53.206;-6.106;2022-07-17T13:34:46;8.15;;;4.20;;
58685;SDS011;44465;53.206;-6.106;2022-07-17T13:37:11;9.50;;;4.43;;
58685;SDS011;44465;53.206;-6.106;2022-07-17T13:39:37;10.13;;;4.28;;
58685;SDS011;44465;53.206;-6.106;2022-07-17T13:42:02;8.80;;;3.85;;
58685;SDS011;44465;53.206;-6.106;2022-07-17T13:44:28;10.00;;;4.20;;
58685;SDS011;44465;53.206;-6.106;2022-07-17T13:46:54;5.53;;;3.53;;
58685;SDS011;44465;53.206;-6.106;2022-07-17T13:49:19;9.57;;;4.07;;
58685;SDS011;44465;53.206;-6.106;2022-07-17T13:51:45;8.35;;;3.83;;
58685;SDS011;44465;53.206;-6.106;2022-07-17T13:54:10;10.65;;;4.07;;
58685;SDS011;44465;53.206;-6.106;2022-07-17T13:56:36;16.83;;;4.40;;
58685;SDS011;44465;53.206;-6.106;2022-07-17T13:59:01;10.43;;;4.25;;
58685;SDS011;44465;53.206;-6.106;2022-07-17T14:01:27;14.57;;;5.05;;
58685;SDS011;44465;53.206;-6.106;2022-07-17T14:03:53;10.38;;;4.20;;
58685;SDS011;44465;53.206;-6.106;2022-07-17T14:06:20;9.07;;;4.33;;
58685;SDS011;44465;53.206;-6.106;2022-07-17T14:08:45;12.13;;;4.00;;
58685;SDS011;44465;53.206;-6.106;2022-07-17T14:11:11;10.15;;;3.50;;
58685;SDS011;44465;53.206;-6.106;2022-07-17T14:13:37;9.35;;;4.07;;
58685;SDS011;44465;53.206;-6.106;2022-07-17T14:16:03;10.50;;;3.70;;
58685;SDS011;44465;53.206;-6.106;2022-07-17T14:18:29;8.18;;;3.83;;
58685;SDS011;44465;53.206;-6.106;2022-07-17T14:20:55;6.32;;;3.42;;
58685;SDS011;44465;53.206;-6.106;2022-07-17T14:23:20;9.18;;;3.28;;
58685;SDS011;44465;53.206;-6.106;2022-07-17T14:25:46;6.45;;;3.65;;
58685;SDS011;44465;53.206;-6.106;2022-07-17T14:28:11;6.38;;;3.72;;
58685;SDS011;44465;53.206;-6.106;2022-07-17T14:30:37;8.85;;;3.65;;
58685;SDS011;44465;53.206;-6.106;2022-07-17T14:33:03;7.05;;;4.15;;
58685;SDS011;44465;53.206;-6.106;2022-07-17T14:35:28;10.07;;;4.05;;
58685;SDS011;44465;53.206;-6.106;2022-07-17T14:37:54;8.77;;;3.50;;
58685;SDS011;44465;53.206;-6.106;2022-07-17T14:40:19;8.20;;;3.55;;